createdAt,value
2018-08-19T00:02:22.999Z,59.33
2018-08-19T00:05:07.190Z,59.30
2018-08-19T00:07:36.520Z,59.53
2018-08-19T00:10:06.749Z,59.48
2018-08-19T00:12:40.827Z,59.30
2018-08-19T00:15:10.154Z,60.00
2018-08-19T00:17:39.547Z,59.80
2018-08-19T00:20:12.003Z,60.50
2018-08-19T00:22:41.370Z,60.49
2018-08-19T00:25:16.598Z,60.21
2018-08-19T00:27:46.055Z,60.85
2018-08-19T00:30:15.374Z,60.22
2018-08-19T00:32:44.768Z,60.96
2018-08-19T00:35:14.105Z,60.69
2018-08-19T00:37:43.491Z,61.61
2018-08-19T00:40:12.834Z,61.24
2018-08-19T00:42:44.741Z,60.80
2018-08-19T00:45:15.273Z,61.62
2018-08-19T00:47:44.626Z,60.94
2018-08-19T00:50:13.923Z,62.37
2018-08-19T00:52:44.141Z,62.91
2018-08-19T00:55:13.404Z,61.85
2018-08-19T00:57:45.070Z,62.56
2018-08-19T01:00:14.375Z,61.81
2018-08-19T01:02:43.662Z,62.60
2018-08-19T01:05:12.958Z,61.53
2018-08-19T01:07:42.279Z,61.04
2018-08-19T01:10:11.623Z,62.05
2018-08-19T01:12:41.166Z,62.57
2018-08-19T01:15:13.107Z,62.48
2018-08-19T01:17:44.355Z,62.35
2018-08-19T01:20:21.063Z,62.79
2018-08-19T01:22:50.433Z,62.62
2018-08-19T01:25:19.753Z,62.36
2018-08-19T01:27:49.045Z,63.79
2018-08-19T01:30:21.191Z,63.55
2018-08-19T01:32:50.509Z,63.42
2018-08-19T01:35:27.050Z,64.32
2018-08-19T01:37:56.443Z,63.88
2018-08-19T01:40:25.742Z,62.70
2018-08-19T01:42:55.051Z,63.56
2018-08-19T01:45:24.354Z,64.45
2018-08-19T01:47:53.633Z,65.22
2018-08-19T01:50:23.567Z,64.65
2018-08-19T01:52:53.170Z,65.59
2018-08-19T01:55:22.447Z,64.76
2018-08-19T01:57:51.734Z,65.07
2018-08-19T02:00:20.987Z,65.53
2018-08-19T02:03:02.159Z,65.35
2018-08-19T02:05:31.520Z,65.84
2018-08-19T02:08:02.458Z,66.79
2018-08-19T02:10:33.303Z,67.16
2018-08-19T02:13:03.219Z,67.47
2018-08-19T02:15:33.412Z,66.70
2018-08-19T02:18:04.234Z,67.19
2018-08-19T02:20:40.315Z,66.84
2018-08-19T02:23:11.433Z,66.43
2018-08-19T02:25:44.192Z,66.93
2018-08-19T02:28:14.674Z,67.67
2018-08-19T02:31:01.987Z,67.65
2018-08-19T02:33:34.400Z,67.80
2018-08-19T02:36:05.524Z,67.96
2018-08-19T02:38:35.571Z,67.72
2018-08-19T02:41:05.795Z,67.81
2018-08-19T02:43:37.627Z,68.26
2018-08-19T02:46:06.988Z,68.74
2018-08-19T02:48:47.419Z,69.34
2018-08-19T02:51:17.899Z,70.03
2018-08-19T02:53:48.306Z,70.00
2018-08-19T02:56:18.450Z,70.00
2018-08-19T02:58:48.464Z,71.49
2018-08-19T03:01:18.732Z,70.98
2018-08-19T03:03:48.040Z,71.65
2018-08-19T03:06:17.345Z,71.52
2018-08-19T03:08:56.584Z,72.67
2018-08-19T03:11:26.940Z,72.75
2018-08-19T03:13:57.111Z,73.87
2018-08-19T03:16:26.382Z,73.70
2018-08-19T03:18:55.690Z,73.31
2018-08-19T03:21:25.482Z,73.41
2018-08-19T03:23:54.845Z,74.52
2018-08-19T03:26:24.163Z,74.22
2018-08-19T03:28:53.440Z,74.15
2018-08-19T03:31:22.772Z,74.74
2018-08-19T03:33:52.040Z,74.19
2018-08-19T03:36:21.373Z,73.86
2018-08-19T03:38:50.637Z,73.66
2018-08-19T03:41:19.949Z,74.19
2018-08-19T03:43:54.526Z,75.67
2018-08-19T03:46:23.756Z,75.68
2018-08-19T03:48:53.042Z,75.59
2018-08-19T03:51:22.339Z,75.68
2018-08-19T03:53:51.793Z,75.46
2018-08-19T03:56:27.696Z,75.69
2018-08-19T03:58:58.607Z,76.02
2018-08-19T04:01:42.985Z,76.22
2018-08-19T04:04:14.639Z,76.45
2018-08-19T04:06:44.423Z,75.67
2018-08-19T04:09:13.758Z,75.99
2018-08-19T04:11:43.063Z,76.58
2018-08-19T04:14:28.578Z,76.24
2018-08-19T04:16:59.743Z,76.39
2018-08-19T04:19:29.731Z,77.31
2018-08-19T04:22:01.979Z,77.11
2018-08-19T04:24:31.927Z,76.46
2018-08-19T04:27:08.346Z,75.85
2018-08-19T04:29:38.108Z,75.46
2018-08-19T04:32:16.374Z,74.88
2018-08-19T04:34:46.073Z,74.53
2018-08-19T04:37:15.479Z,74.74
2018-08-19T04:39:46.727Z,74.80
2018-08-19T04:42:20.005Z,74.88
2018-08-19T04:44:49.255Z,75.32
2018-08-19T04:47:31.149Z,73.88
2018-08-19T04:50:00.975Z,74.15
2018-08-19T04:52:32.192Z,73.19
2018-08-19T04:55:02.098Z,73.82
2018-08-19T04:57:32.026Z,73.66
2018-08-19T05:00:01.470Z,72.08
2018-08-19T05:02:30.763Z,72.17
2018-08-19T05:05:00.055Z,72.56
2018-08-19T05:07:29.531Z,72.94
2018-08-19T05:09:59.166Z,73.42
2018-08-19T05:12:28.472Z,73.70
2018-08-19T05:14:58.384Z,73.02
2018-08-19T05:17:27.777Z,73.54
2018-08-19T05:20:16.374Z,72.58
2018-08-19T05:22:45.706Z,73.25
2018-08-19T05:25:14.998Z,73.73
2018-08-19T05:27:45.881Z,72.89
2018-08-19T05:30:15.385Z,71.60
2018-08-19T05:32:48.791Z,71.13
2018-08-19T05:35:18.156Z,70.38
2018-08-19T05:37:47.518Z,69.37
2018-08-19T05:40:16.854Z,69.22
2018-08-19T05:42:46.235Z,69.81
2018-08-19T05:45:16.561Z,68.58
2018-08-19T05:48:01.733Z,68.20
2018-08-19T05:50:31.049Z,67.56
2018-08-19T05:53:01.443Z,67.40
2018-08-19T05:55:30.956Z,67.75
2018-08-19T05:58:00.247Z,67.92
2018-08-19T06:00:29.548Z,67.49
2018-08-19T06:03:00.966Z,66.55
2018-08-19T06:05:30.626Z,66.66
2018-08-19T06:08:08.043Z,66.64
2018-08-19T06:10:37.313Z,65.84
2018-08-19T06:13:07.855Z,65.95
2018-08-19T06:15:37.340Z,65.27
2018-08-19T06:18:06.864Z,65.88
2018-08-19T06:20:36.169Z,65.09
2018-08-19T06:23:05.536Z,64.95
2018-08-19T06:25:34.883Z,65.13
2018-08-19T06:28:04.166Z,63.21
2018-08-19T06:30:33.607Z,63.46
2018-08-19T06:33:02.887Z,63.18
2018-08-19T06:35:32.279Z,63.78
2018-08-19T06:38:01.663Z,63.61
2018-08-19T06:40:30.999Z,64.19
2018-08-19T06:43:00.351Z,62.92
2018-08-19T06:45:29.699Z,63.61
2018-08-19T06:47:59.067Z,63.40
2018-08-19T06:50:32.434Z,63.45
2018-08-19T06:53:01.747Z,63.15
2018-08-19T06:55:31.054Z,62.79
2018-08-19T06:58:01.022Z,62.49
2018-08-19T07:00:31.753Z,63.20
2018-08-19T07:03:04.188Z,63.26
2018-08-19T07:05:34.451Z,64.10
2018-08-19T07:08:03.806Z,63.31
2018-08-19T07:10:39.606Z,63.80
2018-08-19T07:13:12.011Z,62.63
2018-08-19T07:15:42.476Z,62.81
2018-08-19T07:18:14.626Z,63.55
2018-08-19T07:20:44.780Z,62.83
2018-08-19T07:23:14.381Z,63.07
2018-08-19T07:25:44.846Z,63.66
2018-08-19T07:28:16.348Z,64.18
2018-08-19T07:30:45.695Z,63.66
2018-08-19T07:33:15.351Z,63.47
2018-08-19T07:35:44.666Z,62.61
2018-08-19T07:38:13.964Z,62.42
2018-08-19T07:40:43.251Z,62.10
2018-08-19T07:43:12.583Z,63.47
2018-08-19T07:45:41.960Z,61.34
2018-08-19T07:48:11.252Z,61.47
2018-08-19T07:50:41.114Z,60.61
2018-08-19T07:53:11.527Z,60.85
2018-08-19T07:55:40.815Z,61.47
2018-08-19T07:58:10.140Z,60.91
2018-08-19T08:00:40.244Z,60.40
2018-08-19T08:03:09.995Z,58.84
2018-08-19T08:05:44.841Z,56.83
2018-08-19T08:08:14.148Z,57.27
2018-08-19T08:10:43.578Z,56.99
2018-08-19T08:13:13.886Z,54.79
2018-08-19T08:15:48.577Z,54.45
2018-08-19T08:18:17.999Z,52.73
2018-08-19T08:20:47.347Z,52.22
2018-08-19T08:23:25.001Z,52.01
2018-08-19T08:25:54.532Z,52.05
2018-08-19T08:28:23.970Z,52.09
2018-08-19T08:30:53.620Z,53.28
2018-08-19T08:33:22.938Z,51.54
2018-08-19T08:35:55.447Z,51.83
2018-08-19T08:38:24.780Z,52.61
2018-08-19T08:40:54.301Z,50.84
2018-08-19T08:43:23.803Z,50.95
2018-08-19T08:45:55.806Z,50.19
2018-08-19T08:48:25.235Z,49.34
2018-08-19T08:50:54.549Z,49.07
2018-08-19T08:53:29.054Z,46.56
2018-08-19T08:55:58.456Z,46.78
2018-08-19T08:58:27.757Z,47.80
2018-08-19T09:00:57.400Z,47.69
2018-08-19T09:03:26.731Z,46.34
2018-08-19T09:05:56.128Z,44.53
2018-08-19T09:08:25.636Z,45.06
2018-08-19T09:10:55.141Z,45.99
2018-08-19T09:13:24.628Z,44.23
2018-08-19T09:15:54.940Z,43.69
2018-08-19T09:18:24.235Z,42.92
2018-08-19T09:20:53.666Z,45.84
2018-08-19T09:23:23.352Z,44.31
2018-08-19T09:25:52.809Z,43.45
2018-08-19T09:28:22.532Z,42.55
2018-08-19T09:30:51.892Z,42.67
2018-08-19T09:33:21.205Z,42.87
2018-08-19T09:35:50.532Z,41.90
2018-08-19T09:38:22.550Z,41.46
2018-08-19T09:40:51.987Z,40.87
2018-08-19T09:43:21.340Z,41.65
2018-08-19T09:45:50.702Z,44.66
2018-08-19T09:48:20.057Z,44.15
2018-08-19T09:50:49.349Z,43.50
2018-08-19T09:53:18.650Z,44.24
2018-08-19T09:55:55.430Z,44.90
2018-08-19T09:58:24.846Z,44.15
2018-08-19T10:00:59.436Z,42.72
2018-08-19T10:03:30.739Z,42.24
2018-08-19T10:06:00.104Z,41.38
2018-08-19T10:08:29.433Z,40.77
2018-08-19T10:10:58.859Z,41.09
2018-08-19T10:13:28.227Z,40.41
2018-08-19T10:15:57.644Z,39.28
2018-08-19T10:18:27.220Z,38.43
2018-08-19T10:20:57.679Z,38.48
2018-08-19T10:23:27.039Z,38.76
2018-08-19T10:25:56.547Z,38.34
2018-08-19T10:28:25.824Z,37.10
2018-08-19T10:30:58.990Z,36.63
2018-08-19T10:33:28.604Z,35.26
2018-08-19T10:36:02.113Z,35.30
2018-08-19T10:38:31.515Z,35.71
2018-08-19T10:41:06.284Z,35.49
2018-08-19T10:43:35.686Z,35.04
2018-08-19T10:46:05.120Z,35.77
2018-08-19T10:48:34.458Z,36.80
2018-08-19T10:51:04.090Z,36.59
2018-08-19T10:53:33.642Z,35.05
2018-08-19T10:56:03.892Z,35.75
2018-08-19T10:58:33.437Z,35.39
2018-08-19T11:01:02.708Z,34.56
2018-08-19T11:03:32.340Z,34.97
2018-08-19T11:06:01.926Z,35.59
2018-08-19T11:08:31.268Z,36.33
2018-08-19T11:11:00.948Z,37.09
2018-08-19T11:13:30.343Z,36.08
2018-08-19T11:15:59.707Z,36.09
2018-08-19T11:18:37.635Z,35.57
2018-08-19T11:21:09.006Z,36.58
2018-08-19T11:23:40.995Z,34.76
2018-08-19T11:26:11.343Z,33.93
2018-08-19T11:28:58.182Z,33.20
2018-08-19T11:31:30.746Z,32.60
2018-08-19T11:34:04.595Z,31.97
2018-08-19T11:36:39.262Z,31.21
2018-08-19T11:39:10.652Z,31.36
2018-08-19T11:41:40.147Z,31.71
2018-08-19T11:44:12.096Z,31.19
2018-08-19T11:46:41.500Z,30.80
2018-08-19T11:49:12.093Z,31.76
2018-08-19T11:51:50.608Z,32.62
2018-08-19T11:54:20.856Z,31.83
2018-08-19T11:56:57.807Z,32.80
2018-08-19T11:59:32.528Z,33.28
2018-08-19T12:02:02.229Z,33.78
2018-08-19T12:04:31.567Z,33.40
2018-08-19T12:07:00.914Z,32.41
2018-08-19T12:09:30.509Z,31.87
2018-08-19T12:11:59.922Z,32.63
2018-08-19T12:14:32.943Z,30.69
2018-08-19T12:17:04.871Z,31.10
2018-08-19T12:19:35.092Z,33.07
2018-08-19T12:22:05.491Z,33.04
2018-08-19T12:24:47.625Z,32.07
2018-08-19T12:27:19.467Z,33.25
2018-08-19T12:29:48.789Z,32.88
2018-08-19T12:32:24.719Z,34.16
2018-08-19T12:34:55.498Z,33.11
2018-08-19T12:37:26.197Z,33.36
2018-08-19T12:39:56.401Z,33.06
2018-08-19T12:42:26.311Z,33.53
2018-08-19T12:45:06.495Z,32.71
2018-08-19T12:47:36.843Z,32.31
2018-08-19T12:50:13.397Z,32.44
2018-08-19T12:52:43.382Z,32.28
2018-08-19T12:55:16.166Z,32.37
2018-08-19T12:57:46.011Z,32.18
2018-08-19T13:00:32.722Z,32.70
2018-08-19T13:03:02.438Z,31.09
2018-08-19T13:05:32.465Z,31.27
2018-08-19T13:08:02.513Z,32.12
2018-08-19T13:10:37.811Z,31.47
2018-08-19T13:13:09.984Z,32.26
2018-08-19T13:15:39.400Z,31.49
2018-08-19T13:18:09.442Z,31.93
2018-08-19T13:20:39.158Z,33.00
2018-08-19T13:23:08.637Z,32.68
2018-08-19T13:25:38.045Z,32.52
2018-08-19T13:28:07.448Z,33.49
2018-08-19T13:30:36.815Z,34.64
2018-08-19T13:33:06.232Z,32.60
2018-08-19T13:35:35.862Z,33.71
2018-08-19T13:38:05.623Z,33.88
2018-08-19T13:40:34.983Z,34.28
2018-08-19T13:43:04.401Z,33.19
2018-08-19T13:45:33.752Z,32.68
2018-08-19T13:48:03.122Z,32.33
2018-08-19T13:50:32.504Z,33.22
2018-08-19T13:53:01.843Z,32.37
2018-08-19T13:55:31.222Z,31.65
2018-08-19T13:58:00.994Z,32.37
2018-08-19T14:00:33.366Z,31.64
2018-08-19T14:03:02.817Z,32.20
2018-08-19T14:05:32.202Z,33.04
2018-08-19T14:08:01.595Z,34.12
2018-08-19T14:10:31.351Z,33.11
2018-08-19T14:13:00.713Z,33.44
2018-08-19T14:15:30.021Z,33.24
2018-08-19T14:17:59.458Z,33.63
2018-08-19T14:20:28.861Z,31.51
2018-08-19T14:22:58.299Z,31.06
2018-08-19T14:25:27.995Z,32.49
2018-08-19T14:27:57.349Z,34.00
2018-08-19T14:30:26.756Z,32.16
2018-08-19T14:32:56.211Z,33.57
2018-08-19T14:35:25.576Z,33.96
2018-08-19T14:37:54.987Z,33.95
2018-08-19T14:40:24.753Z,32.63
2018-08-19T14:42:54.067Z,32.23
2018-08-19T14:45:23.456Z,32.30
2018-08-19T14:47:52.891Z,32.65
2018-08-19T14:50:22.262Z,33.20
2018-08-19T14:52:51.575Z,33.31
2018-08-19T14:55:20.929Z,32.67
2018-08-19T14:57:50.259Z,32.14
2018-08-19T15:00:19.603Z,33.00
2018-08-19T15:02:49.486Z,32.89
2018-08-19T15:05:20.626Z,33.17
2018-08-19T15:07:50.550Z,32.66
2018-08-19T15:10:24.332Z,31.77
2018-08-19T15:12:54.556Z,32.65
2018-08-19T15:15:23.910Z,32.13
2018-08-19T15:18:00.495Z,31.85
2018-08-19T15:20:34.234Z,31.49
2018-08-19T15:23:21.430Z,32.19
2018-08-19T15:25:50.676Z,31.67
2018-08-19T15:28:19.948Z,31.71
2018-08-19T15:30:49.334Z,32.13
2018-08-19T15:33:18.635Z,31.85
2018-08-19T15:35:47.961Z,31.99
2018-08-19T15:38:17.474Z,31.73
2018-08-19T15:40:49.267Z,33.50
2018-08-19T15:43:19.002Z,32.72
2018-08-19T15:45:48.333Z,32.48
2018-08-19T15:48:17.750Z,32.95
2018-08-19T15:50:47.126Z,33.08
2018-08-19T15:53:18.694Z,32.88
2018-08-19T15:55:48.299Z,34.42
2018-08-19T15:58:17.626Z,34.10
2018-08-19T16:00:46.963Z,33.18
2018-08-19T16:03:16.335Z,35.72
2018-08-19T16:05:45.806Z,32.75
2018-08-19T16:08:15.098Z,32.74
2018-08-19T16:10:44.574Z,32.26
2018-08-19T16:13:14.002Z,32.71
2018-08-19T16:15:43.333Z,34.25
2018-08-19T16:18:12.700Z,33.28
2018-08-19T16:20:44.952Z,35.12
2018-08-19T16:23:14.373Z,32.84
2018-08-19T16:25:43.750Z,33.79
2018-08-19T16:28:13.103Z,33.65
2018-08-19T16:30:42.639Z,33.20
2018-08-19T16:33:12.106Z,33.59
2018-08-19T16:35:41.597Z,32.75
2018-08-19T16:38:11.508Z,32.57
2018-08-19T16:40:40.872Z,32.96
2018-08-19T16:43:10.189Z,32.97
2018-08-19T16:45:39.534Z,32.03
2018-08-19T16:48:09.558Z,32.16
2018-08-19T16:50:38.961Z,33.87
2018-08-19T16:53:08.316Z,33.87
2018-08-19T16:55:37.761Z,33.06
2018-08-19T16:58:07.138Z,33.29
2018-08-19T17:00:36.564Z,33.44
2018-08-19T17:03:26.638Z,32.96
2018-08-19T17:05:56.544Z,34.10
2018-08-19T17:08:25.978Z,34.24
2018-08-19T17:10:55.283Z,35.57
2018-08-19T17:13:24.740Z,34.14
2018-08-19T17:15:54.250Z,34.79
2018-08-19T17:18:23.583Z,33.93
2018-08-19T17:20:53.214Z,34.04
2018-08-19T17:23:24.017Z,35.48
2018-08-19T17:25:53.385Z,34.82
2018-08-19T17:28:25.187Z,34.81
2018-08-19T17:30:55.483Z,35.33
2018-08-19T17:33:28.743Z,34.97
2018-08-19T17:35:58.966Z,34.67
2018-08-19T17:38:31.678Z,35.45
2018-08-19T17:41:01.343Z,36.63
2018-08-19T17:43:39.660Z,36.51
2018-08-19T17:46:12.220Z,35.83
2018-08-19T17:48:42.773Z,36.43
2018-08-19T17:51:30.518Z,37.42
2018-08-19T17:54:00.076Z,37.52
2018-08-19T17:56:29.857Z,36.63
2018-08-19T17:59:00.314Z,36.15
2018-08-19T18:01:29.745Z,37.73
2018-08-19T18:03:59.111Z,36.64
2018-08-19T18:06:28.590Z,37.20
2018-08-19T18:08:57.955Z,38.05
2018-08-19T18:11:27.753Z,38.43
2018-08-19T18:14:04.145Z,38.16
2018-08-19T18:16:33.473Z,37.34
2018-08-19T18:19:03.777Z,37.76
2018-08-19T18:21:37.740Z,37.99
2018-08-19T18:24:07.482Z,38.78
2018-08-19T18:26:36.844Z,38.38
2018-08-19T18:29:06.725Z,38.09
2018-08-19T18:31:36.062Z,39.29
2018-08-19T18:34:08.662Z,38.31
2018-08-19T18:36:37.981Z,38.54
2018-08-19T18:39:10.480Z,38.85
2018-08-19T18:41:43.720Z,39.11
2018-08-19T18:44:14.273Z,39.44
2018-08-19T18:46:43.608Z,38.85
2018-08-19T18:49:15.562Z,39.66
2018-08-19T18:51:47.281Z,39.91
2018-08-19T18:54:32.799Z,39.58
2018-08-19T18:57:08.470Z,40.26
2018-08-19T18:59:43.423Z,40.37
2018-08-19T19:02:12.801Z,40.99
2018-08-19T19:04:42.148Z,41.01
2018-08-19T19:07:11.618Z,41.39
2018-08-19T19:09:50.076Z,40.94
2018-08-19T19:12:23.376Z,41.29
2018-08-19T19:14:52.804Z,41.35
2018-08-19T19:17:22.147Z,40.77
2018-08-19T19:19:52.009Z,40.76
2018-08-19T19:22:21.421Z,41.58
2018-08-19T19:24:53.039Z,41.94
2018-08-19T19:27:22.540Z,41.49
2018-08-19T19:29:57.038Z,41.63
2018-08-19T19:32:26.420Z,41.68
2018-08-19T19:34:56.207Z,42.27
2018-08-19T19:37:25.756Z,41.74
2018-08-19T19:40:00.359Z,42.52
2018-08-19T19:42:29.917Z,42.21
2018-08-19T19:44:59.584Z,42.24
2018-08-19T19:47:29.070Z,43.02
2018-08-19T19:49:59.586Z,43.10
2018-08-19T19:52:29.714Z,42.82
2018-08-19T19:54:59.366Z,43.88
2018-08-19T19:57:29.122Z,44.23
2018-08-19T19:59:58.674Z,43.72
2018-08-19T20:02:29.795Z,43.98
2018-08-19T20:04:59.890Z,44.50
2018-08-19T20:07:29.582Z,44.05
2018-08-19T20:09:59.116Z,44.17
2018-08-19T20:12:29.793Z,44.14
2018-08-19T20:15:01.455Z,44.97
2018-08-19T20:17:30.908Z,44.43
2018-08-19T20:20:01.097Z,45.01
2018-08-19T20:22:30.764Z,45.34
2018-08-19T20:25:00.120Z,45.30
2018-08-19T20:27:29.926Z,45.29
2018-08-19T20:29:59.245Z,46.05
2018-08-19T20:32:28.697Z,44.87
2018-08-19T20:34:58.072Z,45.61
2018-08-19T20:37:28.932Z,45.82
2018-08-19T20:39:58.456Z,46.39
2018-08-19T20:42:28.221Z,46.66
2018-08-19T20:44:57.794Z,47.65
2018-08-19T20:47:27.132Z,47.50
2018-08-19T20:49:56.808Z,48.08
2018-08-19T20:52:43.046Z,47.91
2018-08-19T20:55:13.771Z,48.73
2018-08-19T20:57:44.676Z,49.08
2018-08-19T21:00:14.110Z,49.07
2018-08-19T21:02:43.456Z,48.50
2018-08-19T21:05:13.058Z,49.58
2018-08-19T21:07:44.303Z,49.88
2018-08-19T21:10:13.777Z,49.94
2018-08-19T21:12:43.118Z,50.21
2018-08-19T21:15:12.427Z,50.10
2018-08-19T21:17:41.829Z,50.41
2018-08-19T21:20:11.170Z,50.41
2018-08-19T21:22:41.041Z,50.60
2018-08-19T21:25:10.709Z,50.61
2018-08-19T21:27:40.587Z,49.75
2018-08-19T21:30:10.037Z,49.81
2018-08-19T21:32:39.456Z,51.27
2018-08-19T21:35:09.728Z,50.63
2018-08-19T21:37:39.255Z,51.36
2018-08-19T21:40:08.649Z,51.48
2018-08-19T21:42:50.955Z,52.42
2018-08-19T21:45:20.361Z,52.85
2018-08-19T21:47:50.030Z,53.32
2018-08-19T21:50:19.508Z,53.84
2018-08-19T21:53:10.424Z,53.54
2018-08-19T21:55:41.019Z,54.14
2018-08-19T21:58:11.090Z,53.54
2018-08-19T22:01:03.452Z,52.72
2018-08-19T22:03:38.095Z,53.29
2018-08-19T22:06:09.102Z,54.63
2018-08-19T22:08:38.443Z,55.18
2018-08-19T22:11:07.742Z,54.05
2018-08-19T22:13:37.551Z,54.39
2018-08-19T22:16:07.432Z,54.77
2018-08-19T22:18:36.703Z,55.30
2018-08-19T22:21:23.781Z,54.53
2018-08-19T22:23:56.646Z,54.43
2018-08-19T22:26:25.935Z,54.46
2018-08-19T22:29:11.752Z,54.97
2018-08-19T22:31:41.138Z,55.11
2018-08-19T22:34:10.402Z,55.39
2018-08-19T22:36:39.702Z,54.96
2018-08-19T22:39:11.140Z,55.55
2018-08-19T22:41:40.647Z,55.17
2018-08-19T22:44:10.043Z,55.65
2018-08-19T22:46:39.495Z,54.93
2018-08-19T22:49:09.080Z,55.58
2018-08-19T22:51:38.812Z,56.34
2018-08-19T22:54:08.870Z,55.96
2018-08-19T22:56:38.338Z,55.78
2018-08-19T22:59:07.747Z,56.18
2018-08-19T23:01:42.359Z,56.28
2018-08-19T23:04:11.692Z,56.13
2018-08-19T23:06:41.377Z,56.78
2018-08-19T23:09:10.870Z,56.10
2018-08-19T23:11:45.546Z,55.69
2018-08-19T23:14:31.774Z,56.64
2018-08-19T23:17:01.410Z,57.02
2018-08-19T23:19:30.754Z,57.28
2018-08-19T23:22:00.200Z,57.05
2018-08-19T23:24:29.830Z,57.04
2018-08-19T23:26:59.434Z,57.29
2018-08-19T23:29:29.994Z,56.88
2018-08-19T23:31:59.534Z,56.92
2018-08-19T23:34:29.007Z,56.37
2018-08-19T23:36:58.448Z,55.66
2018-08-19T23:39:27.866Z,55.83
2018-08-19T23:41:57.563Z,56.00
2018-08-19T23:44:26.982Z,56.92
2018-08-19T23:46:56.427Z,57.02
2018-08-19T23:49:25.846Z,56.31
2018-08-19T23:51:55.324Z,56.96
2018-08-19T23:54:24.828Z,56.78
2018-08-19T23:56:54.147Z,57.54
2018-08-19T23:59:27.580Z,57.92
